sensor_id;sensor_type;location;lat;lon;timestamp;P1;durP1;ratioP1;P2;durP2;ratioP2
20727;SDS011;10525;50.154;8.198;2023-04-21T00:01:41;49.53;;;21.50;;
20727;SDS011;10525;50.154;8.198;2023-04-21T00:04:08;58.28;;;23.80;;
20727;SDS011;10525;50.154;8.198;2023-04-21T00:06:37;53.38;;;22.85;;
20727;SDS011;10525;50.154;8.198;2023-04-21T00:09:05;55.50;;;22.80;;
20727;SDS011;10525;50.154;8.198;2023-04-21T00:11:32;48.17;;;21.33;;
20727;SDS011;10525;50.154;8.198;2023-04-21T00:13:59;61.35;;;23.75;;
20727;SDS011;10525;50.154;8.198;2023-04-21T00:16:28;50.97;;;22.15;;
20727;SDS011;10525;50.154;8.198;2023-04-21T00:18:55;60.20;;;24.25;;
20727;SDS011;10525;50.154;8.198;2023-04-21T00:21:22;61.22;;;23.27;;
20727;SDS011;10525;50.154;8.198;2023-04-21T00:23:49;54.67;;;21.73;;
20727;SDS011;10525;50.154;8.198;2023-04-21T00:26:16;55.65;;;22.65;;
20727;SDS011;10525;50.154;8.198;2023-04-21T00:28:44;59.47;;;21.67;;
20727;SDS011;10525;50.154;8.198;2023-04-21T00:31:11;54.33;;;23.23;;
20727;SDS011;10525;50.154;8.198;2023-04-21T00:33:39;63.72;;;21.63;;
20727;SDS011;10525;50.154;8.198;2023-04-21T00:36:06;57.75;;;22.98;;
20727;SDS011;10525;50.154;8.198;2023-04-21T00:38:33;51.13;;;22.38;;
20727;SDS011;10525;50.154;8.198;2023-04-21T00:41:01;51.70;;;21.70;;
20727;SDS011;10525;50.154;8.198;2023-04-21T00:43:28;51.97;;;22.13;;
20727;SDS011;10525;50.154;8.198;2023-04-21T00:45:55;46.75;;;20.83;;
20727;SDS011;10525;50.154;8.198;2023-04-21T00:48:22;52.58;;;22.30;;
20727;SDS011;10525;50.154;8.198;2023-04-21T00:50:50;51.28;;;21.55;;
20727;SDS011;10525;50.154;8.198;2023-04-21T00:53:17;48.60;;;21.05;;
20727;SDS011;10525;50.154;8.198;2023-04-21T00:55:46;58.10;;;21.27;;
20727;SDS011;10525;50.154;8.198;2023-04-21T00:58:13;50.60;;;21.58;;
20727;SDS011;10525;50.154;8.198;2023-04-21T01:00:40;54.35;;;20.98;;
20727;SDS011;10525;50.154;8.198;2023-04-21T01:03:08;56.03;;;23.10;;
20727;SDS011;10525;50.154;8.198;2023-04-21T01:05:35;54.53;;;23.13;;
20727;SDS011;10525;50.154;8.198;2023-04-21T01:08:04;58.58;;;22.85;;
20727;SDS011;10525;50.154;8.198;2023-04-21T01:10:32;56.67;;;22.35;;
20727;SDS011;10525;50.154;8.198;2023-04-21T01:12:59;50.08;;;22.00;;
20727;SDS011;10525;50.154;8.198;2023-04-21T01:15:27;55.40;;;22.93;;
20727;SDS011;10525;50.154;8.198;2023-04-21T01:17:55;53.70;;;21.00;;
20727;SDS011;10525;50.154;8.198;2023-04-21T01:20:22;55.13;;;21.27;;
20727;SDS011;10525;50.154;8.198;2023-04-21T01:22:50;60.75;;;21.17;;
20727;SDS011;10525;50.154;8.198;2023-04-21T01:25:17;59.97;;;23.15;;
20727;SDS011;10525;50.154;8.198;2023-04-21T01:27:46;53.40;;;22.73;;
20727;SDS011;10525;50.154;8.198;2023-04-21T01:30:13;57.60;;;21.43;;
20727;SDS011;10525;50.154;8.198;2023-04-21T01:32:40;51.87;;;20.10;;
20727;SDS011;10525;50.154;8.198;2023-04-21T01:35:08;58.72;;;22.55;;
20727;SDS011;10525;50.154;8.198;2023-04-21T01:37:35;61.93;;;22.20;;
20727;SDS011;10525;50.154;8.198;2023-04-21T01:40:04;62.23;;;22.43;;
20727;SDS011;10525;50.154;8.198;2023-04-21T01:42:33;50.05;;;19.85;;
20727;SDS011;10525;50.154;8.198;2023-04-21T01:45:00;57.35;;;21.25;;
20727;SDS011;10525;50.154;8.198;2023-04-21T01:47:28;61.97;;;21.40;;
20727;SDS011;10525;50.154;8.198;2023-04-21T01:49:55;60.95;;;22.08;;
20727;SDS011;10525;50.154;8.198;2023-04-21T01:52:22;56.40;;;20.75;;
20727;SDS011;10525;50.154;8.198;2023-04-21T01:54:49;55.97;;;21.42;;
20727;SDS011;10525;50.154;8.198;2023-04-21T01:57:17;58.13;;;21.23;;
20727;SDS011;10525;50.154;8.198;2023-04-21T01:59:44;51.35;;;20.75;;
20727;SDS011;10525;50.154;8.198;2023-04-21T02:02:12;53.70;;;21.08;;
20727;SDS011;10525;50.154;8.198;2023-04-21T02:04:39;54.83;;;20.73;;
20727;SDS011;10525;50.154;8.198;2023-04-21T02:07:06;51.63;;;19.52;;
20727;SDS011;10525;50.154;8.198;2023-04-21T02:09:33;51.80;;;19.88;;
20727;SDS011;10525;50.154;8.198;2023-04-21T02:12:00;55.30;;;19.90;;
20727;SDS011;10525;50.154;8.198;2023-04-21T02:14:29;55.57;;;18.83;;
20727;SDS011;10525;50.154;8.198;2023-04-21T02:16:56;56.33;;;20.30;;
20727;SDS011;10525;50.154;8.198;2023-04-21T02:19:23;57.60;;;19.03;;
20727;SDS011;10525;50.154;8.198;2023-04-21T02:21:50;51.87;;;18.83;;
20727;SDS011;10525;50.154;8.198;2023-04-21T02:24:17;56.77;;;19.63;;
20727;SDS011;10525;50.154;8.198;2023-04-21T02:26:44;56.63;;;20.57;;
20727;SDS011;10525;50.154;8.198;2023-04-21T02:29:11;55.33;;;19.53;;
20727;SDS011;10525;50.154;8.198;2023-04-21T02:31:40;58.70;;;19.00;;
20727;SDS011;10525;50.154;8.198;2023-04-21T02:34:07;62.77;;;22.00;;
20727;SDS011;10525;50.154;8.198;2023-04-21T02:36:34;50.53;;;18.87;;
20727;SDS011;10525;50.154;8.198;2023-04-21T02:39:01;48.60;;;18.13;;
20727;SDS011;10525;50.154;8.198;2023-04-21T02:41:29;57.08;;;19.05;;
20727;SDS011;10525;50.154;8.198;2023-04-21T02:43:56;61.93;;;19.17;;
20727;SDS011;10525;50.154;8.198;2023-04-21T02:46:23;54.72;;;19.20;;
20727;SDS011;10525;50.154;8.198;2023-04-21T02:48:51;50.65;;;18.55;;
20727;SDS011;10525;50.154;8.198;2023-04-21T02:51:18;62.20;;;19.25;;
20727;SDS011;10525;50.154;8.198;2023-04-21T02:53:45;49.90;;;17.98;;
20727;SDS011;10525;50.154;8.198;2023-04-21T02:56:13;51.03;;;17.80;;
20727;SDS011;10525;50.154;8.198;2023-04-21T02:58:40;49.07;;;18.50;;
20727;SDS011;10525;50.154;8.198;2023-04-21T03:01:07;58.53;;;18.83;;
20727;SDS011;10525;50.154;8.198;2023-04-21T03:03:34;51.10;;;18.30;;
20727;SDS011;10525;50.154;8.198;2023-04-21T03:06:03;53.33;;;18.07;;
20727;SDS011;10525;50.154;8.198;2023-04-21T03:08:30;52.00;;;18.77;;
20727;SDS011;10525;50.154;8.198;2023-04-21T03:10:58;57.03;;;19.53;;
20727;SDS011;10525;50.154;8.198;2023-04-21T03:13:25;50.33;;;18.27;;
20727;SDS011;10525;50.154;8.198;2023-04-21T03:15:52;56.17;;;17.27;;
20727;SDS011;10525;50.154;8.198;2023-04-21T03:18:19;61.77;;;19.63;;
20727;SDS011;10525;50.154;8.198;2023-04-21T03:20:46;59.93;;;19.37;;
20727;SDS011;10525;50.154;8.198;2023-04-21T03:23:14;53.80;;;18.17;;
20727;SDS011;10525;50.154;8.198;2023-04-21T03:25:42;55.63;;;18.63;;
20727;SDS011;10525;50.154;8.198;2023-04-21T03:28:09;69.33;;;21.13;;
20727;SDS011;10525;50.154;8.198;2023-04-21T03:30:36;55.83;;;18.77;;
20727;SDS011;10525;50.154;8.198;2023-04-21T03:33:03;52.97;;;17.33;;
20727;SDS011;10525;50.154;8.198;2023-04-21T03:35:30;51.83;;;17.67;;
20727;SDS011;10525;50.154;8.198;2023-04-21T03:37:58;53.53;;;18.20;;
20727;SDS011;10525;50.154;8.198;2023-04-21T03:40:26;60.40;;;18.63;;
20727;SDS011;10525;50.154;8.198;2023-04-21T03:42:54;56.33;;;18.23;;
20727;SDS011;10525;50.154;8.198;2023-04-21T03:45:21;46.70;;;17.00;;
20727;SDS011;10525;50.154;8.198;2023-04-21T03:47:48;54.00;;;17.50;;
20727;SDS011;10525;50.154;8.198;2023-04-21T03:50:18;49.40;;;17.53;;
20727;SDS011;10525;50.154;8.198;2023-04-21T03:52:45;47.07;;;16.93;;
20727;SDS011;10525;50.154;8.198;2023-04-21T03:55:12;51.70;;;17.20;;
20727;SDS011;10525;50.154;8.198;2023-04-21T03:57:41;49.80;;;17.80;;
20727;SDS011;10525;50.154;8.198;2023-04-21T04:00:08;45.57;;;17.17;;
20727;SDS011;10525;50.154;8.198;2023-04-21T04:02:36;54.63;;;17.23;;
20727;SDS011;10525;50.154;8.198;2023-04-21T04:05:03;48.50;;;16.17;;
20727;SDS011;10525;50.154;8.198;2023-04-21T04:07:31;47.03;;;17.70;;
20727;SDS011;10525;50.154;8.198;2023-04-21T04:09:58;46.07;;;16.03;;
20727;SDS011;10525;50.154;8.198;2023-04-21T04:12:25;50.50;;;17.13;;
20727;SDS011;10525;50.154;8.198;2023-04-21T04:14:53;45.70;;;16.03;;
20727;SDS011;10525;50.154;8.198;2023-04-21T04:17:20;41.97;;;15.80;;
20727;SDS011;10525;50.154;8.198;2023-04-21T04:19:48;47.50;;;16.57;;
20727;SDS011;10525;50.154;8.198;2023-04-21T04:22:15;43.30;;;15.10;;
20727;SDS011;10525;50.154;8.198;2023-04-21T04:24:42;51.90;;;17.17;;
20727;SDS011;10525;50.154;8.198;2023-04-21T04:27:09;43.57;;;15.23;;
20727;SDS011;10525;50.154;8.198;2023-04-21T04:29:38;49.03;;;16.93;;
20727;SDS011;10525;50.154;8.198;2023-04-21T04:32:07;42.00;;;15.10;;
20727;SDS011;10525;50.154;8.198;2023-04-21T04:34:34;47.30;;;17.27;;
20727;SDS011;10525;50.154;8.198;2023-04-21T04:37:02;38.20;;;14.90;;
20727;SDS011;10525;50.154;8.198;2023-04-21T04:39:30;44.00;;;16.17;;
20727;SDS011;10525;50.154;8.198;2023-04-21T04:41:58;45.93;;;15.70;;
20727;SDS011;10525;50.154;8.198;2023-04-21T04:44:25;39.00;;;15.30;;
20727;SDS011;10525;50.154;8.198;2023-04-21T04:46:52;39.43;;;14.50;;
20727;SDS011;10525;50.154;8.198;2023-04-21T04:49:21;43.20;;;15.77;;
20727;SDS011;10525;50.154;8.198;2023-04-21T04:51:48;42.00;;;15.70;;
20727;SDS011;10525;50.154;8.198;2023-04-21T04:54:16;46.07;;;16.10;;
20727;SDS011;10525;50.154;8.198;2023-04-21T04:56:43;42.80;;;15.63;;
20727;SDS011;10525;50.154;8.198;2023-04-21T04:59:10;46.90;;;16.03;;
20727;SDS011;10525;50.154;8.198;2023-04-21T05:01:37;42.17;;;15.47;;
20727;SDS011;10525;50.154;8.198;2023-04-21T05:04:05;40.40;;;16.97;;
20727;SDS011;10525;50.154;8.198;2023-04-21T05:06:34;43.50;;;17.07;;
20727;SDS011;10525;50.154;8.198;2023-04-21T05:09:01;53.20;;;18.07;;
20727;SDS011;10525;50.154;8.198;2023-04-21T05:11:29;49.60;;;18.10;;
20727;SDS011;10525;50.154;8.198;2023-04-21T05:13:56;64.30;;;22.17;;
20727;SDS011;10525;50.154;8.198;2023-04-21T05:16:23;53.60;;;19.97;;
20727;SDS011;10525;50.154;8.198;2023-04-21T05:18:50;51.53;;;20.43;;
20727;SDS011;10525;50.154;8.198;2023-04-21T05:21:22;60.47;;;20.60;;
20727;SDS011;10525;50.154;8.198;2023-04-21T05:23:52;60.17;;;20.05;;
20727;SDS011;10525;50.154;8.198;2023-04-21T05:26:20;48.07;;;17.87;;
20727;SDS011;10525;50.154;8.198;2023-04-21T05:28:47;45.00;;;17.33;;
20727;SDS011;10525;50.154;8.198;2023-04-21T05:31:15;52.00;;;16.57;;
20727;SDS011;10525;50.154;8.198;2023-04-21T05:33:42;45.73;;;16.60;;
20727;SDS011;10525;50.154;8.198;2023-04-21T05:36:09;46.77;;;15.80;;
20727;SDS011;10525;50.154;8.198;2023-04-21T05:38:36;45.77;;;15.50;;
20727;SDS011;10525;50.154;8.198;2023-04-21T05:41:05;46.87;;;15.70;;
20727;SDS011;10525;50.154;8.198;2023-04-21T05:43:32;49.87;;;16.00;;
20727;SDS011;10525;50.154;8.198;2023-04-21T05:46:00;51.30;;;17.00;;
20727;SDS011;10525;50.154;8.198;2023-04-21T05:48:27;51.23;;;16.27;;
20727;SDS011;10525;50.154;8.198;2023-04-21T05:50:54;50.00;;;16.13;;
20727;SDS011;10525;50.154;8.198;2023-04-21T05:53:21;48.10;;;16.48;;
20727;SDS011;10525;50.154;8.198;2023-04-21T05:55:48;51.17;;;15.50;;
20727;SDS011;10525;50.154;8.198;2023-04-21T05:58:17;50.60;;;16.00;;
20727;SDS011;10525;50.154;8.198;2023-04-21T06:00:44;45.85;;;15.15;;
20727;SDS011;10525;50.154;8.198;2023-04-21T06:03:11;46.83;;;16.35;;
20727;SDS011;10525;50.154;8.198;2023-04-21T06:05:38;61.60;;;18.80;;
20727;SDS011;10525;50.154;8.198;2023-04-21T06:08:05;66.10;;;20.00;;
20727;SDS011;10525;50.154;8.198;2023-04-21T06:10:32;67.23;;;19.83;;
20727;SDS011;10525;50.154;8.198;2023-04-21T06:13:00;68.30;;;20.37;;
20727;SDS011;10525;50.154;8.198;2023-04-21T06:15:28;64.43;;;20.00;;
20727;SDS011;10525;50.154;8.198;2023-04-21T06:17:55;58.63;;;18.50;;
20727;SDS011;10525;50.154;8.198;2023-04-21T06:20:22;70.40;;;20.33;;
20727;SDS011;10525;50.154;8.198;2023-04-21T06:22:49;59.67;;;20.00;;
20727;SDS011;10525;50.154;8.198;2023-04-21T06:25:17;60.10;;;19.63;;
20727;SDS011;10525;50.154;8.198;2023-04-21T06:27:44;56.80;;;18.40;;
20727;SDS011;10525;50.154;8.198;2023-04-21T06:30:12;59.28;;;18.30;;
20727;SDS011;10525;50.154;8.198;2023-04-21T06:32:40;57.27;;;18.47;;
20727;SDS011;10525;50.154;8.198;2023-04-21T06:35:09;57.85;;;19.40;;
20727;SDS011;10525;50.154;8.198;2023-04-21T06:37:38;55.42;;;19.30;;
20727;SDS011;10525;50.154;8.198;2023-04-21T06:40:06;65.97;;;20.00;;
20727;SDS011;10525;50.154;8.198;2023-04-21T06:42:33;61.95;;;20.33;;
20727;SDS011;10525;50.154;8.198;2023-04-21T06:45:00;50.70;;;18.58;;
20727;SDS011;10525;50.154;8.198;2023-04-21T06:47:27;51.28;;;17.48;;
20727;SDS011;10525;50.154;8.198;2023-04-21T06:49:56;48.50;;;16.35;;
20727;SDS011;10525;50.154;8.198;2023-04-21T06:52:23;40.92;;;15.77;;
20727;SDS011;10525;50.154;8.198;2023-04-21T06:54:50;37.25;;;16.58;;
20727;SDS011;10525;50.154;8.198;2023-04-21T06:57:17;41.65;;;16.25;;
20727;SDS011;10525;50.154;8.198;2023-04-21T06:59:44;46.08;;;18.25;;
20727;SDS011;10525;50.154;8.198;2023-04-21T07:02:11;53.25;;;19.30;;
20727;SDS011;10525;50.154;8.198;2023-04-21T07:04:38;65.22;;;20.38;;
20727;SDS011;10525;50.154;8.198;2023-04-21T07:07:07;55.42;;;19.85;;
20727;SDS011;10525;50.154;8.198;2023-04-21T07:09:34;55.13;;;20.77;;
20727;SDS011;10525;50.154;8.198;2023-04-21T07:12:01;59.60;;;19.90;;
20727;SDS011;10525;50.154;8.198;2023-04-21T07:14:28;57.00;;;18.63;;
20727;SDS011;10525;50.154;8.198;2023-04-21T07:16:56;68.32;;;22.15;;
20727;SDS011;10525;50.154;8.198;2023-04-21T07:19:23;61.55;;;20.35;;
20727;SDS011;10525;50.154;8.198;2023-04-21T07:21:50;63.97;;;21.45;;
20727;SDS011;10525;50.154;8.198;2023-04-21T07:24:18;66.50;;;22.55;;
20727;SDS011;10525;50.154;8.198;2023-04-21T07:26:45;72.22;;;23.20;;
20727;SDS011;10525;50.154;8.198;2023-04-21T07:29:12;75.22;;;23.85;;
20727;SDS011;10525;50.154;8.198;2023-04-21T07:31:40;60.63;;;22.67;;
20727;SDS011;10525;50.154;8.198;2023-04-21T07:34:07;60.53;;;22.55;;
20727;SDS011;10525;50.154;8.198;2023-04-21T07:36:34;72.03;;;22.38;;
20727;SDS011;10525;50.154;8.198;2023-04-21T07:39:02;65.45;;;22.42;;
20727;SDS011;10525;50.154;8.198;2023-04-21T07:41:30;58.45;;;21.55;;
20727;SDS011;10525;50.154;8.198;2023-04-21T07:43:57;60.55;;;21.98;;
20727;SDS011;10525;50.154;8.198;2023-04-21T07:46:26;61.53;;;21.73;;
20727;SDS011;10525;50.154;8.198;2023-04-21T07:48:56;62.00;;;22.52;;
20727;SDS011;10525;50.154;8.198;2023-04-21T07:51:23;61.78;;;22.40;;
20727;SDS011;10525;50.154;8.198;2023-04-21T07:53:51;62.55;;;23.63;;
20727;SDS011;10525;50.154;8.198;2023-04-21T07:56:18;72.32;;;23.80;;
20727;SDS011;10525;50.154;8.198;2023-04-21T07:58:47;69.80;;;24.98;;
20727;SDS011;10525;50.154;8.198;2023-04-21T08:01:15;63.45;;;25.08;;
20727;SDS011;10525;50.154;8.198;2023-04-21T08:03:42;69.05;;;25.58;;
20727;SDS011;10525;50.154;8.198;2023-04-21T08:06:09;63.20;;;24.70;;
20727;SDS011;10525;50.154;8.198;2023-04-21T08:08:36;65.43;;;25.83;;
20727;SDS011;10525;50.154;8.198;2023-04-21T08:11:03;65.53;;;24.98;;
20727;SDS011;10525;50.154;8.198;2023-04-21T08:13:30;65.88;;;25.10;;
20727;SDS011;10525;50.154;8.198;2023-04-21T08:15:59;63.78;;;26.27;;
20727;SDS011;10525;50.154;8.198;2023-04-21T08:18:26;61.85;;;25.00;;
20727;SDS011;10525;50.154;8.198;2023-04-21T08:20:55;67.38;;;25.85;;
20727;SDS011;10525;50.154;8.198;2023-04-21T08:23:22;60.45;;;24.35;;
20727;SDS011;10525;50.154;8.198;2023-04-21T08:25:50;59.53;;;24.88;;
20727;SDS011;10525;50.154;8.198;2023-04-21T08:28:17;54.53;;;23.17;;
20727;SDS011;10525;50.154;8.198;2023-04-21T08:30:44;55.67;;;23.17;;
20727;SDS011;10525;50.154;8.198;2023-04-21T08:33:12;47.83;;;22.58;;
20727;SDS011;10525;50.154;8.198;2023-04-21T08:35:40;44.20;;;21.63;;
20727;SDS011;10525;50.154;8.198;2023-04-21T08:38:07;44.38;;;21.50;;
20727;SDS011;10525;50.154;8.198;2023-04-21T08:40:35;39.65;;;19.95;;
20727;SDS011;10525;50.154;8.198;2023-04-21T08:43:03;40.10;;;20.70;;
20727;SDS011;10525;50.154;8.198;2023-04-21T08:45:31;33.92;;;18.92;;
20727;SDS011;10525;50.154;8.198;2023-04-21T08:47:58;36.65;;;19.10;;
20727;SDS011;10525;50.154;8.198;2023-04-21T08:50:27;34.83;;;18.38;;
20727;SDS011;10525;50.154;8.198;2023-04-21T08:52:55;35.38;;;18.45;;
20727;SDS011;10525;50.154;8.198;2023-04-21T08:55:22;41.30;;;19.88;;
20727;SDS011;10525;50.154;8.198;2023-04-21T08:57:51;33.15;;;17.92;;
20727;SDS011;10525;50.154;8.198;2023-04-21T09:00:18;31.05;;;17.05;;
20727;SDS011;10525;50.154;8.198;2023-04-21T09:02:52;29.25;;;16.98;;
20727;SDS011;10525;50.154;8.198;2023-04-21T09:05:20;31.00;;;16.92;;
20727;SDS011;10525;50.154;8.198;2023-04-21T09:07:49;26.23;;;15.88;;
20727;SDS011;10525;50.154;8.198;2023-04-21T09:10:21;33.00;;;17.15;;
20727;SDS011;10525;50.154;8.198;2023-04-21T09:12:49;29.15;;;16.38;;
20727;SDS011;10525;50.154;8.198;2023-04-21T09:15:17;30.40;;;15.93;;
20727;SDS011;10525;50.154;8.198;2023-04-21T09:17:46;42.13;;;17.52;;
20727;SDS011;10525;50.154;8.198;2023-04-21T09:20:14;29.70;;;15.38;;
20727;SDS011;10525;50.154;8.198;2023-04-21T09:22:41;24.88;;;15.45;;
20727;SDS011;10525;50.154;8.198;2023-04-21T09:25:09;25.45;;;15.23;;
20727;SDS011;10525;50.154;8.198;2023-04-21T09:27:41;23.77;;;14.70;;
20727;SDS011;10525;50.154;8.198;2023-04-21T09:30:09;26.30;;;14.98;;
20727;SDS011;10525;50.154;8.198;2023-04-21T09:32:36;27.13;;;14.30;;
20727;SDS011;10525;50.154;8.198;2023-04-21T09:35:04;27.48;;;14.57;;
20727;SDS011;10525;50.154;8.198;2023-04-21T09:37:39;24.50;;;14.48;;
20727;SDS011;10525;50.154;8.198;2023-04-21T09:40:13;27.52;;;14.35;;
20727;SDS011;10525;50.154;8.198;2023-04-21T09:42:40;21.30;;;13.35;;
20727;SDS011;10525;50.154;8.198;2023-04-21T09:45:08;24.35;;;14.27;;
20727;SDS011;10525;50.154;8.198;2023-04-21T09:47:36;24.90;;;13.85;;
20727;SDS011;10525;50.154;8.198;2023-04-21T09:50:05;23.58;;;13.88;;
20727;SDS011;10525;50.154;8.198;2023-04-21T09:52:33;21.13;;;12.88;;
20727;SDS011;10525;50.154;8.198;2023-04-21T09:55:00;23.50;;;13.10;;
20727;SDS011;10525;50.154;8.198;2023-04-21T09:57:30;22.10;;;11.75;;
20727;SDS011;10525;50.154;8.198;2023-04-21T09:59:58;19.65;;;12.30;;
20727;SDS011;10525;50.154;8.198;2023-04-21T10:02:28;16.67;;;10.90;;
20727;SDS011;10525;50.154;8.198;2023-04-21T10:04:56;17.48;;;11.88;;
20727;SDS011;10525;50.154;8.198;2023-04-21T10:07:23;22.45;;;12.63;;
20727;SDS011;10525;50.154;8.198;2023-04-21T10:09:51;21.33;;;12.57;;
20727;SDS011;10525;50.154;8.198;2023-04-21T10:12:19;23.10;;;14.07;;
20727;SDS011;10525;50.154;8.198;2023-04-21T10:14:50;19.70;;;11.55;;
20727;SDS011;10525;50.154;8.198;2023-04-21T10:17:17;19.27;;;11.85;;
20727;SDS011;10525;50.154;8.198;2023-04-21T10:19:49;22.38;;;12.80;;
20727;SDS011;10525;50.154;8.198;2023-04-21T10:22:24;19.25;;;11.60;;
20727;SDS011;10525;50.154;8.198;2023-04-21T10:24:53;21.67;;;12.23;;
20727;SDS011;10525;50.154;8.198;2023-04-21T10:27:29;24.83;;;12.10;;
20727;SDS011;10525;50.154;8.198;2023-04-21T10:29:58;18.35;;;11.63;;
20727;SDS011;10525;50.154;8.198;2023-04-21T10:32:38;17.15;;;11.27;;
20727;SDS011;10525;50.154;8.198;2023-04-21T10:35:09;20.63;;;11.90;;
20727;SDS011;10525;50.154;8.198;2023-04-21T10:37:36;22.38;;;13.65;;
20727;SDS011;10525;50.154;8.198;2023-04-21T10:40:04;23.08;;;14.43;;
20727;SDS011;10525;50.154;8.198;2023-04-21T10:42:34;23.27;;;13.75;;
20727;SDS011;10525;50.154;8.198;2023-04-21T10:45:10;24.05;;;13.52;;
20727;SDS011;10525;50.154;8.198;2023-04-21T10:47:41;16.63;;;11.63;;
20727;SDS011;10525;50.154;8.198;2023-04-21T10:50:15;18.42;;;11.38;;
20727;SDS011;10525;50.154;8.198;2023-04-21T10:52:43;13.75;;;10.27;;
20727;SDS011;10525;50.154;8.198;2023-04-21T10:55:10;14.43;;;10.77;;
20727;SDS011;10525;50.154;8.198;2023-04-21T10:57:40;15.13;;;10.25;;
20727;SDS011;10525;50.154;8.198;2023-04-21T11:00:09;23.02;;;11.88;;
20727;SDS011;10525;50.154;8.198;2023-04-21T11:02:37;15.50;;;10.95;;
20727;SDS011;10525;50.154;8.198;2023-04-21T11:05:05;18.02;;;11.55;;
20727;SDS011;10525;50.154;8.198;2023-04-21T11:07:32;17.52;;;11.73;;
20727;SDS011;10525;50.154;8.198;2023-04-21T11:10:00;15.48;;;11.05;;
20727;SDS011;10525;50.154;8.198;2023-04-21T11:12:28;12.50;;;8.77;;
20727;SDS011;10525;50.154;8.198;2023-04-21T11:14:55;16.90;;;11.95;;
20727;SDS011;10525;50.154;8.198;2023-04-21T11:17:24;23.13;;;13.68;;
20727;SDS011;10525;50.154;8.198;2023-04-21T11:19:52;23.23;;;13.95;;
20727;SDS011;10525;50.154;8.198;2023-04-21T11:22:19;28.05;;;14.80;;
20727;SDS011;10525;50.154;8.198;2023-04-21T11:24:47;24.60;;;14.82;;
20727;SDS011;10525;50.154;8.198;2023-04-21T11:27:15;28.60;;;15.30;;
20727;SDS011;10525;50.154;8.198;2023-04-21T11:29:43;23.17;;;14.63;;
20727;SDS011;10525;50.154;8.198;2023-04-21T11:32:11;23.05;;;13.10;;
20727;SDS011;10525;50.154;8.198;2023-04-21T11:34:40;23.08;;;14.73;;
20727;SDS011;10525;50.154;8.198;2023-04-21T11:37:13;22.55;;;13.90;;
20727;SDS011;10525;50.154;8.198;2023-04-21T11:39:41;25.27;;;13.70;;
20727;SDS011;10525;50.154;8.198;2023-04-21T11:42:08;23.80;;;14.02;;
20727;SDS011;10525;50.154;8.198;2023-04-21T11:44:36;24.80;;;14.73;;
20727;SDS011;10525;50.154;8.198;2023-04-21T11:47:13;25.20;;;13.95;;
20727;SDS011;10525;50.154;8.198;2023-04-21T11:49:46;28.90;;;14.98;;
20727;SDS011;10525;50.154;8.198;2023-04-21T11:52:22;29.13;;;16.50;;
20727;SDS011;10525;50.154;8.198;2023-04-21T11:54:56;29.83;;;15.77;;
20727;SDS011;10525;50.154;8.198;2023-04-21T11:57:24;23.80;;;15.02;;
20727;SDS011;10525;50.154;8.198;2023-04-21T11:59:51;23.13;;;14.77;;
20727;SDS011;10525;50.154;8.198;2023-04-21T12:02:25;27.98;;;14.20;;
20727;SDS011;10525;50.154;8.198;2023-04-21T12:05:03;23.20;;;13.52;;
20727;SDS011;10525;50.154;8.198;2023-04-21T12:07:31;20.25;;;12.90;;
20727;SDS011;10525;50.154;8.198;2023-04-21T12:09:58;30.88;;;13.60;;
20727;SDS011;10525;50.154;8.198;2023-04-21T12:12:25;23.48;;;12.93;;
20727;SDS011;10525;50.154;8.198;2023-04-21T12:14:52;24.23;;;13.00;;
20727;SDS011;10525;50.154;8.198;2023-04-21T12:17:19;20.85;;;11.48;;
20727;SDS011;10525;50.154;8.198;2023-04-21T12:19:47;17.20;;;11.50;;
20727;SDS011;10525;50.154;8.198;2023-04-21T12:22:16;20.73;;;11.60;;
20727;SDS011;10525;50.154;8.198;2023-04-21T12:24:43;17.23;;;10.60;;
20727;SDS011;10525;50.154;8.198;2023-04-21T12:27:11;20.42;;;12.60;;
20727;SDS011;10525;50.154;8.198;2023-04-21T12:29:38;21.10;;;12.63;;
20727;SDS011;10525;50.154;8.198;2023-04-21T12:32:05;18.08;;;11.75;;
20727;SDS011;10525;50.154;8.198;2023-04-21T12:34:33;20.85;;;11.63;;
20727;SDS011;10525;50.154;8.198;2023-04-21T12:37:00;20.60;;;11.82;;
20727;SDS011;10525;50.154;8.198;2023-04-21T12:39:28;17.73;;;11.77;;
20727;SDS011;10525;50.154;8.198;2023-04-21T12:41:55;18.83;;;11.13;;
20727;SDS011;10525;50.154;8.198;2023-04-21T12:44:23;16.73;;;11.13;;
20727;SDS011;10525;50.154;8.198;2023-04-21T12:46:50;16.95;;;11.07;;
20727;SDS011;10525;50.154;8.198;2023-04-21T12:49:17;18.10;;;11.23;;
20727;SDS011;10525;50.154;8.198;2023-04-21T12:51:44;16.80;;;9.82;;
20727;SDS011;10525;50.154;8.198;2023-04-21T12:54:11;16.23;;;9.90;;
20727;SDS011;10525;50.154;8.198;2023-04-21T12:56:40;17.17;;;10.90;;
20727;SDS011;10525;50.154;8.198;2023-04-21T12:59:08;15.63;;;11.10;;
20727;SDS011;10525;50.154;8.198;2023-04-21T13:01:35;20.23;;;10.85;;
20727;SDS011;10525;50.154;8.198;2023-04-21T13:04:02;14.40;;;10.05;;
20727;SDS011;10525;50.154;8.198;2023-04-21T13:06:29;16.33;;;11.07;;
20727;SDS011;10525;50.154;8.198;2023-04-21T13:08:58;14.55;;;10.55;;
20727;SDS011;10525;50.154;8.198;2023-04-21T13:11:25;13.48;;;10.20;;
20727;SDS011;10525;50.154;8.198;2023-04-21T13:13:54;19.48;;;11.73;;
20727;SDS011;10525;50.154;8.198;2023-04-21T13:16:23;19.60;;;11.90;;
20727;SDS011;10525;50.154;8.198;2023-04-21T13:18:50;16.30;;;11.70;;
20727;SDS011;10525;50.154;8.198;2023-04-21T13:21:17;18.58;;;11.32;;
20727;SDS011;10525;50.154;8.198;2023-04-21T13:23:44;18.08;;;11.25;;
20727;SDS011;10525;50.154;8.198;2023-04-21T13:26:11;19.38;;;12.10;;
20727;SDS011;10525;50.154;8.198;2023-04-21T13:28:38;19.33;;;11.23;;
20727;SDS011;10525;50.154;8.198;2023-04-21T13:31:07;17.83;;;10.73;;
20727;SDS011;10525;50.154;8.198;2023-04-21T13:33:34;15.68;;;11.13;;
20727;SDS011;10525;50.154;8.198;2023-04-21T13:36:01;14.82;;;10.50;;
20727;SDS011;10525;50.154;8.198;2023-04-21T13:38:28;16.35;;;10.45;;
20727;SDS011;10525;50.154;8.198;2023-04-21T13:40:56;13.82;;;9.77;;
20727;SDS011;10525;50.154;8.198;2023-04-21T13:43:23;14.68;;;9.95;;
20727;SDS011;10525;50.154;8.198;2023-04-21T13:45:50;13.45;;;10.80;;
20727;SDS011;10525;50.154;8.198;2023-04-21T13:48:19;18.13;;;11.07;;
20727;SDS011;10525;50.154;8.198;2023-04-21T13:50:48;14.98;;;10.80;;
20727;SDS011;10525;50.154;8.198;2023-04-21T13:53:15;14.98;;;10.60;;
20727;SDS011;10525;50.154;8.198;2023-04-21T13:55:42;14.23;;;10.15;;
20727;SDS011;10525;50.154;8.198;2023-04-21T13:58:09;13.68;;;9.00;;
20727;SDS011;10525;50.154;8.198;2023-04-21T14:00:36;12.85;;;10.18;;
20727;SDS011;10525;50.154;8.198;2023-04-21T14:03:03;12.00;;;9.45;;
20727;SDS011;10525;50.154;8.198;2023-04-21T14:05:32;16.17;;;11.15;;
20727;SDS011;10525;50.154;8.198;2023-04-21T14:07:59;16.15;;;10.13;;
20727;SDS011;10525;50.154;8.198;2023-04-21T14:10:27;13.88;;;9.98;;
20727;SDS011;10525;50.154;8.198;2023-04-21T14:12:54;12.07;;;9.75;;
20727;SDS011;10525;50.154;8.198;2023-04-21T14:15:21;22.05;;;10.55;;
20727;SDS011;10525;50.154;8.198;2023-04-21T14:17:48;14.65;;;10.10;;
20727;SDS011;10525;50.154;8.198;2023-04-21T14:20:15;12.30;;;8.65;;
20727;SDS011;10525;50.154;8.198;2023-04-21T14:22:43;11.00;;;8.45;;
20727;SDS011;10525;50.154;8.198;2023-04-21T14:25:10;8.65;;;7.40;;